sensor_id;sensor_type;location;lat;lon;timestamp;temperature;humidity
8953;DHT22;4511;50.890;8.054;2023-08-20T00:01:24;21.00;99.90
8953;DHT22;4511;50.890;8.054;2023-08-20T00:03:53;21.00;99.90
8953;DHT22;4511;50.890;8.054;2023-08-20T00:06:21;21.00;99.90
8953;DHT22;4511;50.890;8.054;2023-08-20T00:08:48;21.00;99.90
8953;DHT22;4511;50.890;8.054;2023-08-20T00:11:16;21.00;99.90
8953;DHT22;4511;50.890;8.054;2023-08-20T00:13:43;21.10;99.90
8953;DHT22;4511;50.890;8.054;2023-08-20T00:16:11;21.00;99.90
8953;DHT22;4511;50.890;8.054;2023-08-20T00:18:38;21.00;99.90
8953;DHT22;4511;50.890;8.054;2023-08-20T00:21:06;20.90;99.90
8953;DHT22;4511;50.890;8.054;2023-08-20T00:23:33;20.90;99.90
8953;DHT22;4511;50.890;8.054;2023-08-20T00:26:01;21.00;99.90
8953;DHT22;4511;50.890;8.054;2023-08-20T00:28:30;21.00;99.90
8953;DHT22;4511;50.890;8.054;2023-08-20T00:30:58;21.00;99.90
8953;DHT22;4511;50.890;8.054;2023-08-20T00:33:25;21.00;99.90
8953;DHT22;4511;50.890;8.054;2023-08-20T00:35:52;21.00;99.90
8953;DHT22;4511;50.890;8.054;2023-08-20T00:38:19;21.00;99.90
8953;DHT22;4511;50.890;8.054;2023-08-20T00:40:45;21.00;99.90
8953;DHT22;4511;50.890;8.054;2023-08-20T00:43:12;21.00;99.90
8953;DHT22;4511;50.890;8.054;2023-08-20T00:45:42;21.00;99.90
8953;DHT22;4511;50.890;8.054;2023-08-20T00:48:09;21.00;99.90
8953;DHT22;4511;50.890;8.054;2023-08-20T00:50:37;20.90;99.90
8953;DHT22;4511;50.890;8.054;2023-08-20T00:53:05;20.90;99.90
8953;DHT22;4511;50.890;8.054;2023-08-20T00:55:32;20.90;99.90
8953;DHT22;4511;50.890;8.054;2023-08-20T00:58:00;20.90;99.90
8953;DHT22;4511;50.890;8.054;2023-08-20T01:00:26;20.90;99.90
8953;DHT22;4511;50.890;8.054;2023-08-20T01:02:55;20.80;99.90
8953;DHT22;4511;50.890;8.054;2023-08-20T01:05:22;20.80;99.90
8953;DHT22;4511;50.890;8.054;2023-08-20T01:07:58;20.70;99.90
8953;DHT22;4511;50.890;8.054;2023-08-20T01:10:34;20.70;99.90
8953;DHT22;4511;50.890;8.054;2023-08-20T01:13:06;20.60;99.90
8953;DHT22;4511;50.890;8.054;2023-08-20T01:15:33;20.60;99.90
8953;DHT22;4511;50.890;8.054;2023-08-20T01:18:02;20.50;99.90
8953;DHT22;4511;50.890;8.054;2023-08-20T01:20:33;20.40;99.90
8953;DHT22;4511;50.890;8.054;2023-08-20T01:26:31;20.40;99.90
8953;DHT22;4511;50.890;8.054;2023-08-20T01:29:05;20.40;99.90
8953;DHT22;4511;50.890;8.054;2023-08-20T01:31:32;20.40;99.90
8953;DHT22;4511;50.890;8.054;2023-08-20T01:34:01;20.30;99.90
8953;DHT22;4511;50.890;8.054;2023-08-20T01:36:28;20.30;99.90
8953;DHT22;4511;50.890;8.054;2023-08-20T01:38:55;20.40;99.90
8953;DHT22;4511;50.890;8.054;2023-08-20T01:41:21;20.50;99.90
8953;DHT22;4511;50.890;8.054;2023-08-20T01:43:48;20.50;99.90
8953;DHT22;4511;50.890;8.054;2023-08-20T01:46:16;20.50;99.90
8953;DHT22;4511;50.890;8.054;2023-08-20T01:48:44;20.60;99.90
8953;DHT22;4511;50.890;8.054;2023-08-20T01:51:11;20.60;99.90
8953;DHT22;4511;50.890;8.054;2023-08-20T01:53:39;20.40;99.90
8953;DHT22;4511;50.890;8.054;2023-08-20T01:56:11;20.40;99.90
8953;DHT22;4511;50.890;8.054;2023-08-20T01:58:37;20.30;99.90
8953;DHT22;4511;50.890;8.054;2023-08-20T02:01:04;20.30;99.90
8953;DHT22;4511;50.890;8.054;2023-08-20T02:03:32;20.30;99.90
8953;DHT22;4511;50.890;8.054;2023-08-20T02:05:59;20.30;99.90
8953;DHT22;4511;50.890;8.054;2023-08-20T02:08:26;20.30;99.90
8953;DHT22;4511;50.890;8.054;2023-08-20T02:10:59;20.30;99.90
8953;DHT22;4511;50.890;8.054;2023-08-20T02:13:26;20.30;99.90
8953;DHT22;4511;50.890;8.054;2023-08-20T02:15:58;20.30;99.90
8953;DHT22;4511;50.890;8.054;2023-08-20T02:18:24;20.20;99.90
8953;DHT22;4511;50.890;8.054;2023-08-20T02:20:53;20.10;99.90
8953;DHT22;4511;50.890;8.054;2023-08-20T02:23:20;20.10;99.90
8953;DHT22;4511;50.890;8.054;2023-08-20T02:25:46;19.90;99.90
8953;DHT22;4511;50.890;8.054;2023-08-20T02:28:13;19.80;99.90
8953;DHT22;4511;50.890;8.054;2023-08-20T02:30:41;19.80;99.90
8953;DHT22;4511;50.890;8.054;2023-08-20T02:33:08;19.80;99.90
8953;DHT22;4511;50.890;8.054;2023-08-20T02:35:35;19.80;99.90
8953;DHT22;4511;50.890;8.054;2023-08-20T02:38:03;19.80;99.90
8953;DHT22;4511;50.890;8.054;2023-08-20T02:40:30;19.80;99.90
8953;DHT22;4511;50.890;8.054;2023-08-20T02:42:57;19.90;99.90
8953;DHT22;4511;50.890;8.054;2023-08-20T02:45:24;19.90;99.90
8953;DHT22;4511;50.890;8.054;2023-08-20T02:47:51;19.80;99.90
8953;DHT22;4511;50.890;8.054;2023-08-20T02:50:18;19.80;99.90
8953;DHT22;4511;50.890;8.054;2023-08-20T02:52:45;19.90;99.90
8953;DHT22;4511;50.890;8.054;2023-08-20T02:55:13;19.80;99.90
8953;DHT22;4511;50.890;8.054;2023-08-20T02:57:40;19.80;99.90
8953;DHT22;4511;50.890;8.054;2023-08-20T03:00:09;19.80;99.90
8953;DHT22;4511;50.890;8.054;2023-08-20T03:02:39;19.80;99.90
8953;DHT22;4511;50.890;8.054;2023-08-20T03:05:07;19.70;99.90
8953;DHT22;4511;50.890;8.054;2023-08-20T03:07:34;19.70;99.90
8953;DHT22;4511;50.890;8.054;2023-08-20T03:10:01;19.70;99.90
8953;DHT22;4511;50.890;8.054;2023-08-20T03:12:29;19.80;99.90
8953;DHT22;4511;50.890;8.054;2023-08-20T03:14:56;19.80;99.90
8953;DHT22;4511;50.890;8.054;2023-08-20T03:17:23;19.80;99.90
8953;DHT22;4511;50.890;8.054;2023-08-20T03:19:57;19.70;99.90
8953;DHT22;4511;50.890;8.054;2023-08-20T03:22:25;19.60;99.90
8953;DHT22;4511;50.890;8.054;2023-08-20T03:24:52;19.60;99.90
8953;DHT22;4511;50.890;8.054;2023-08-20T03:27:20;19.70;99.90
8953;DHT22;4511;50.890;8.054;2023-08-20T03:29:48;19.60;99.90
8953;DHT22;4511;50.890;8.054;2023-08-20T03:32:16;19.60;99.90
8953;DHT22;4511;50.890;8.054;2023-08-20T03:34:42;19.60;99.90
8953;DHT22;4511;50.890;8.054;2023-08-20T03:37:09;19.60;99.90
8953;DHT22;4511;50.890;8.054;2023-08-20T03:39:36;19.60;99.90
8953;DHT22;4511;50.890;8.054;2023-08-20T03:42:03;19.60;99.90
8953;DHT22;4511;50.890;8.054;2023-08-20T03:44:31;19.60;99.90
8953;DHT22;4511;50.890;8.054;2023-08-20T03:46:59;19.60;99.90
8953;DHT22;4511;50.890;8.054;2023-08-20T03:49:26;19.60;99.90
8953;DHT22;4511;50.890;8.054;2023-08-20T03:51:52;19.50;99.90
8953;DHT22;4511;50.890;8.054;2023-08-20T03:54:19;19.50;99.90
8953;DHT22;4511;50.890;8.054;2023-08-20T03:56:46;19.40;99.90
8953;DHT22;4511;50.890;8.054;2023-08-20T03:59:13;19.40;99.90
8953;DHT22;4511;50.890;8.054;2023-08-20T04:01:40;19.50;99.90
8953;DHT22;4511;50.890;8.054;2023-08-20T04:04:08;19.50;99.90
8953;DHT22;4511;50.890;8.054;2023-08-20T04:06:35;19.50;99.90
8953;DHT22;4511;50.890;8.054;2023-08-20T04:09:02;19.50;99.90
8953;DHT22;4511;50.890;8.054;2023-08-20T04:11:29;19.50;99.90
8953;DHT22;4511;50.890;8.054;2023-08-20T04:13:56;19.40;99.90
8953;DHT22;4511;50.890;8.054;2023-08-20T04:16:23;19.30;99.90
8953;DHT22;4511;50.890;8.054;2023-08-20T04:18:49;19.40;99.90
8953;DHT22;4511;50.890;8.054;2023-08-20T04:21:18;19.40;99.90
8953;DHT22;4511;50.890;8.054;2023-08-20T04:23:44;19.40;99.90
8953;DHT22;4511;50.890;8.054;2023-08-20T04:26:11;19.50;99.90
8953;DHT22;4511;50.890;8.054;2023-08-20T04:28:38;19.40;99.90
8953;DHT22;4511;50.890;8.054;2023-08-20T04:31:05;19.30;99.90
8953;DHT22;4511;50.890;8.054;2023-08-20T04:33:32;19.30;99.90
8953;DHT22;4511;50.890;8.054;2023-08-20T04:35:58;19.30;99.90
8953;DHT22;4511;50.890;8.054;2023-08-20T04:38:26;18.90;99.90
8953;DHT22;4511;50.890;8.054;2023-08-20T04:40:53;18.90;99.90
8953;DHT22;4511;50.890;8.054;2023-08-20T04:43:20;19.00;99.90
8953;DHT22;4511;50.890;8.054;2023-08-20T04:45:47;19.00;99.90
8953;DHT22;4511;50.890;8.054;2023-08-20T04:48:13;19.00;99.90
8953;DHT22;4511;50.890;8.054;2023-08-20T04:50:40;18.80;99.90
8953;DHT22;4511;50.890;8.054;2023-08-20T04:53:07;19.00;99.90
8953;DHT22;4511;50.890;8.054;2023-08-20T04:55:35;19.10;99.90
8953;DHT22;4511;50.890;8.054;2023-08-20T04:58:02;19.10;99.90
8953;DHT22;4511;50.890;8.054;2023-08-20T05:00:29;19.10;99.90
8953;DHT22;4511;50.890;8.054;2023-08-20T05:02:56;19.20;99.90
8953;DHT22;4511;50.890;8.054;2023-08-20T05:05:24;19.20;99.90
8953;DHT22;4511;50.890;8.054;2023-08-20T05:07:51;19.30;99.90
8953;DHT22;4511;50.890;8.054;2023-08-20T05:10:18;19.30;99.90
8953;DHT22;4511;50.890;8.054;2023-08-20T05:12:47;19.30;99.90
8953;DHT22;4511;50.890;8.054;2023-08-20T05:15:13;19.30;99.90
8953;DHT22;4511;50.890;8.054;2023-08-20T05:17:40;19.30;99.90
8953;DHT22;4511;50.890;8.054;2023-08-20T05:20:08;19.30;99.90
8953;DHT22;4511;50.890;8.054;2023-08-20T05:22:35;19.40;99.90
8953;DHT22;4511;50.890;8.054;2023-08-20T05:25:02;19.40;99.90
8953;DHT22;4511;50.890;8.054;2023-08-20T05:27:29;19.50;99.90
8953;DHT22;4511;50.890;8.054;2023-08-20T05:29:57;19.60;99.90
8953;DHT22;4511;50.890;8.054;2023-08-20T05:32:23;19.60;99.90
8953;DHT22;4511;50.890;8.054;2023-08-20T05:34:50;19.70;99.90
8953;DHT22;4511;50.890;8.054;2023-08-20T05:37:17;19.70;99.90
8953;DHT22;4511;50.890;8.054;2023-08-20T05:39:44;19.80;99.90
8953;DHT22;4511;50.890;8.054;2023-08-20T05:42:11;19.80;99.90
8953;DHT22;4511;50.890;8.054;2023-08-20T05:44:38;19.80;99.90
8953;DHT22;4511;50.890;8.054;2023-08-20T05:47:06;19.80;99.90
8953;DHT22;4511;50.890;8.054;2023-08-20T05:49:33;19.90;99.90
8953;DHT22;4511;50.890;8.054;2023-08-20T05:51:59;19.90;99.90
8953;DHT22;4511;50.890;8.054;2023-08-20T05:54:26;19.80;99.90
8953;DHT22;4511;50.890;8.054;2023-08-20T05:56:53;19.70;99.90
8953;DHT22;4511;50.890;8.054;2023-08-20T05:59:20;19.70;99.90
8953;DHT22;4511;50.890;8.054;2023-08-20T06:01:46;19.50;99.90
8953;DHT22;4511;50.890;8.054;2023-08-20T06:04:15;19.60;99.90
8953;DHT22;4511;50.890;8.054;2023-08-20T06:06:41;19.80;99.90
8953;DHT22;4511;50.890;8.054;2023-08-20T06:09:08;19.80;99.90
8953;DHT22;4511;50.890;8.054;2023-08-20T06:11:35;19.80;99.90
8953;DHT22;4511;50.890;8.054;2023-08-20T06:14:02;19.80;99.90
8953;DHT22;4511;50.890;8.054;2023-08-20T06:16:29;19.90;99.90
8953;DHT22;4511;50.890;8.054;2023-08-20T06:18:57;20.00;99.90
8953;DHT22;4511;50.890;8.054;2023-08-20T06:21:25;20.10;99.90
8953;DHT22;4511;50.890;8.054;2023-08-20T06:23:51;20.10;99.90
8953;DHT22;4511;50.890;8.054;2023-08-20T06:26:18;20.20;99.90
8953;DHT22;4511;50.890;8.054;2023-08-20T06:28:45;20.20;99.90
8953;DHT22;4511;50.890;8.054;2023-08-20T06:31:12;20.30;99.90
8953;DHT22;4511;50.890;8.054;2023-08-20T06:33:39;20.30;99.90
8953;DHT22;4511;50.890;8.054;2023-08-20T06:36:06;20.30;99.90
8953;DHT22;4511;50.890;8.054;2023-08-20T06:38:34;20.30;99.90
8953;DHT22;4511;50.890;8.054;2023-08-20T06:41:01;20.20;99.90
8953;DHT22;4511;50.890;8.054;2023-08-20T06:43:28;20.00;99.90
8953;DHT22;4511;50.890;8.054;2023-08-20T06:45:55;20.00;99.90
8953;DHT22;4511;50.890;8.054;2023-08-20T06:48:22;20.00;99.90
8953;DHT22;4511;50.890;8.054;2023-08-20T06:50:50;20.10;99.90
8953;DHT22;4511;50.890;8.054;2023-08-20T06:53:17;20.20;99.90
8953;DHT22;4511;50.890;8.054;2023-08-20T06:55:45;20.40;99.90
8953;DHT22;4511;50.890;8.054;2023-08-20T06:58:12;20.60;99.90
8953;DHT22;4511;50.890;8.054;2023-08-20T07:00:38;20.60;99.90
8953;DHT22;4511;50.890;8.054;2023-08-20T07:03:05;20.60;99.90
8953;DHT22;4511;50.890;8.054;2023-08-20T07:05:32;20.80;99.90
8953;DHT22;4511;50.890;8.054;2023-08-20T07:07:59;20.90;99.90
8953;DHT22;4511;50.890;8.054;2023-08-20T07:10:25;21.00;99.90
8953;DHT22;4511;50.890;8.054;2023-08-20T07:12:53;21.10;99.90
8953;DHT22;4511;50.890;8.054;2023-08-20T07:15:20;21.20;99.90
8953;DHT22;4511;50.890;8.054;2023-08-20T07:17:47;21.30;99.90
8953;DHT22;4511;50.890;8.054;2023-08-20T07:20:14;21.20;99.90
8953;DHT22;4511;50.890;8.054;2023-08-20T07:22:41;21.30;99.90
8953;DHT22;4511;50.890;8.054;2023-08-20T07:25:08;21.40;99.90
8953;DHT22;4511;50.890;8.054;2023-08-20T07:27:35;21.50;99.90
8953;DHT22;4511;50.890;8.054;2023-08-20T07:30:03;21.60;99.90
8953;DHT22;4511;50.890;8.054;2023-08-20T07:32:30;21.50;99.90
8953;DHT22;4511;50.890;8.054;2023-08-20T07:34:57;21.50;99.90
8953;DHT22;4511;50.890;8.054;2023-08-20T07:37:23;21.60;99.90
8953;DHT22;4511;50.890;8.054;2023-08-20T07:39:50;21.50;99.90
8953;DHT22;4511;50.890;8.054;2023-08-20T07:42:17;21.70;99.90
8953;DHT22;4511;50.890;8.054;2023-08-20T07:44:44;21.70;99.90
8953;DHT22;4511;50.890;8.054;2023-08-20T07:47:12;21.90;99.90
8953;DHT22;4511;50.890;8.054;2023-08-20T07:49:39;21.90;99.90
8953;DHT22;4511;50.890;8.054;2023-08-20T07:52:06;22.00;99.90
8953;DHT22;4511;50.890;8.054;2023-08-20T07:54:33;22.10;99.90
8953;DHT22;4511;50.890;8.054;2023-08-20T07:56:59;22.20;99.90
8953;DHT22;4511;50.890;8.054;2023-08-20T07:59:26;22.10;99.90
8953;DHT22;4511;50.890;8.054;2023-08-20T08:01:53;22.20;99.90
8953;DHT22;4511;50.890;8.054;2023-08-20T08:04:21;22.20;99.90
8953;DHT22;4511;50.890;8.054;2023-08-20T08:06:48;22.40;99.90
8953;DHT22;4511;50.890;8.054;2023-08-20T08:09:18;22.40;99.90
8953;DHT22;4511;50.890;8.054;2023-08-20T08:11:46;22.50;99.90
8953;DHT22;4511;50.890;8.054;2023-08-20T08:14:13;22.50;99.90
8953;DHT22;4511;50.890;8.054;2023-08-20T08:16:39;22.60;99.90
8953;DHT22;4511;50.890;8.054;2023-08-20T08:19:06;22.70;99.90
8953;DHT22;4511;50.890;8.054;2023-08-20T08:21:34;22.70;99.90
8953;DHT22;4511;50.890;8.054;2023-08-20T08:24:01;22.80;99.90
8953;DHT22;4511;50.890;8.054;2023-08-20T08:26:28;22.90;99.90
8953;DHT22;4511;50.890;8.054;2023-08-20T08:28:56;23.00;99.90
8953;DHT22;4511;50.890;8.054;2023-08-20T08:31:23;23.00;99.90
8953;DHT22;4511;50.890;8.054;2023-08-20T08:33:50;23.10;99.90
8953;DHT22;4511;50.890;8.054;2023-08-20T08:36:16;23.20;99.90
8953;DHT22;4511;50.890;8.054;2023-08-20T08:38:45;23.20;99.90
8953;DHT22;4511;50.890;8.054;2023-08-20T08:41:13;23.30;99.90
8953;DHT22;4511;50.890;8.054;2023-08-20T08:43:40;23.40;99.90
8953;DHT22;4511;50.890;8.054;2023-08-20T08:46:11;23.40;99.90
8953;DHT22;4511;50.890;8.054;2023-08-20T08:48:40;23.50;99.90
8953;DHT22;4511;50.890;8.054;2023-08-20T08:51:07;23.50;99.90
8953;DHT22;4511;50.890;8.054;2023-08-20T08:53:35;23.50;99.90
8953;DHT22;4511;50.890;8.054;2023-08-20T08:56:04;23.60;99.90
8953;DHT22;4511;50.890;8.054;2023-08-20T08:58:32;23.70;99.90
8953;DHT22;4511;50.890;8.054;2023-08-20T09:00:59;23.70;99.90
8953;DHT22;4511;50.890;8.054;2023-08-20T09:03:26;23.90;99.90
8953;DHT22;4511;50.890;8.054;2023-08-20T09:05:55;24.00;99.90
8953;DHT22;4511;50.890;8.054;2023-08-20T09:08:26;24.10;99.90
8953;DHT22;4511;50.890;8.054;2023-08-20T09:11:00;24.20;99.90
8953;DHT22;4511;50.890;8.054;2023-08-20T09:16:04;24.40;99.90
8953;DHT22;4511;50.890;8.054;2023-08-20T09:18:31;24.50;99.90
8953;DHT22;4511;50.890;8.054;2023-08-20T09:20:58;24.50;99.90
8953;DHT22;4511;50.890;8.054;2023-08-20T09:23:28;24.60;99.90
8953;DHT22;4511;50.890;8.054;2023-08-20T09:25:56;24.60;99.90
8953;DHT22;4511;50.890;8.054;2023-08-20T09:28:22;24.60;99.90
8953;DHT22;4511;50.890;8.054;2023-08-20T09:30:58;24.80;99.90
8953;DHT22;4511;50.890;8.054;2023-08-20T09:33:27;24.70;99.90
8953;DHT22;4511;50.890;8.054;2023-08-20T09:35:54;24.80;99.90
8953;DHT22;4511;50.890;8.054;2023-08-20T09:38:21;24.90;99.90
8953;DHT22;4511;50.890;8.054;2023-08-20T09:40:50;24.90;99.90
8953;DHT22;4511;50.890;8.054;2023-08-20T09:43:18;25.10;99.90
8953;DHT22;4511;50.890;8.054;2023-08-20T09:45:47;25.20;99.90
8953;DHT22;4511;50.890;8.054;2023-08-20T09:48:18;25.10;99.90
8953;DHT22;4511;50.890;8.054;2023-08-20T09:50:46;25.30;99.90
8953;DHT22;4511;50.890;8.054;2023-08-20T09:53:24;25.40;99.90
8953;DHT22;4511;50.890;8.054;2023-08-20T09:55:55;25.60;99.90
8953;DHT22;4511;50.890;8.054;2023-08-20T09:58:23;25.70;99.90
8953;DHT22;4511;50.890;8.054;2023-08-20T10:00:51;25.90;99.90
8953;DHT22;4511;50.890;8.054;2023-08-20T10:03:20;26.10;99.90
8953;DHT22;4511;50.890;8.054;2023-08-20T10:05:49;26.10;99.90
8953;DHT22;4511;50.890;8.054;2023-08-20T10:08:17;26.10;99.90
8953;DHT22;4511;50.890;8.054;2023-08-20T10:10:47;26.10;99.90
8953;DHT22;4511;50.890;8.054;2023-08-20T10:13:16;26.20;99.90
8953;DHT22;4511;50.890;8.054;2023-08-20T10:15:44;26.40;99.90
8953;DHT22;4511;50.890;8.054;2023-08-20T10:18:12;26.70;99.90
8953;DHT22;4511;50.890;8.054;2023-08-20T10:20:42;26.90;99.90
8953;DHT22;4511;50.890;8.054;2023-08-20T10:23:12;27.20;99.90
8953;DHT22;4511;50.890;8.054;2023-08-20T10:25:43;27.40;99.90
8953;DHT22;4511;50.890;8.054;2023-08-20T10:28:14;27.60;99.90
8953;DHT22;4511;50.890;8.054;2023-08-20T10:31:05;27.80;99.90
8953;DHT22;4511;50.890;8.054;2023-08-20T10:33:34;27.60;99.90
8953;DHT22;4511;50.890;8.054;2023-08-20T10:36:27;27.80;99.90
8953;DHT22;4511;50.890;8.054;2023-08-20T10:38:56;28.00;99.90
8953;DHT22;4511;50.890;8.054;2023-08-20T10:41:27;28.20;99.90
8953;DHT22;4511;50.890;8.054;2023-08-20T10:43:58;28.30;99.90
8953;DHT22;4511;50.890;8.054;2023-08-20T10:46:26;28.40;99.90
8953;DHT22;4511;50.890;8.054;2023-08-20T10:48:57;28.70;99.90
8953;DHT22;4511;50.890;8.054;2023-08-20T10:51:27;28.80;99.90
8953;DHT22;4511;50.890;8.054;2023-08-20T10:54:05;28.80;99.90
8953;DHT22;4511;50.890;8.054;2023-08-20T10:56:40;29.10;99.90
8953;DHT22;4511;50.890;8.054;2023-08-20T10:59:07;29.30;99.90
8953;DHT22;4511;50.890;8.054;2023-08-20T11:01:35;29.40;99.90
8953;DHT22;4511;50.890;8.054;2023-08-20T11:04:03;29.50;99.90
8953;DHT22;4511;50.890;8.054;2023-08-20T11:06:34;29.70;99.90
8953;DHT22;4511;50.890;8.054;2023-08-20T11:09:01;29.60;99.90
8953;DHT22;4511;50.890;8.054;2023-08-20T11:11:31;29.60;99.90
8953;DHT22;4511;50.890;8.054;2023-08-20T11:14:05;30.00;99.90
8953;DHT22;4511;50.890;8.054;2023-08-20T11:16:32;30.10;99.90
8953;DHT22;4511;50.890;8.054;2023-08-20T11:18:59;30.30;99.90
8953;DHT22;4511;50.890;8.054;2023-08-20T11:21:28;30.50;99.90
8953;DHT22;4511;50.890;8.054;2023-08-20T11:23:57;30.10;99.90
8953;DHT22;4511;50.890;8.054;2023-08-20T11:26:24;29.70;99.90
8953;DHT22;4511;50.890;8.054;2023-08-20T11:28:51;29.60;99.90
8953;DHT22;4511;50.890;8.054;2023-08-20T11:31:19;29.00;99.90
8953;DHT22;4511;50.890;8.054;2023-08-20T11:33:46;29.30;99.90
8953;DHT22;4511;50.890;8.054;2023-08-20T11:36:15;29.70;99.90
8953;DHT22;4511;50.890;8.054;2023-08-20T11:38:42;30.00;99.90
8953;DHT22;4511;50.890;8.054;2023-08-20T11:41:20;30.00;99.90
8953;DHT22;4511;50.890;8.054;2023-08-20T11:43:47;30.10;99.90
8953;DHT22;4511;50.890;8.054;2023-08-20T11:46:15;30.70;99.90
8953;DHT22;4511;50.890;8.054;2023-08-20T11:49:00;30.70;99.90
8953;DHT22;4511;50.890;8.054;2023-08-20T11:51:29;30.90;99.90
8953;DHT22;4511;50.890;8.054;2023-08-20T11:53:57;30.70;99.90
8953;DHT22;4511;50.890;8.054;2023-08-20T11:56:26;30.70;99.90
8953;DHT22;4511;50.890;8.054;2023-08-20T11:58:58;30.50;99.90
8953;DHT22;4511;50.890;8.054;2023-08-20T12:01:25;30.30;99.90
8953;DHT22;4511;50.890;8.054;2023-08-20T12:03:52;30.00;99.90
8953;DHT22;4511;50.890;8.054;2023-08-20T12:06:20;29.80;99.90
8953;DHT22;4511;50.890;8.054;2023-08-20T12:08:48;30.30;99.90
8953;DHT22;4511;50.890;8.054;2023-08-20T12:11:17;30.20;99.90
8953;DHT22;4511;50.890;8.054;2023-08-20T12:13:48;30.40;99.90
8953;DHT22;4511;50.890;8.054;2023-08-20T12:16:18;30.40;99.90
8953;DHT22;4511;50.890;8.054;2023-08-20T12:18:47;30.50;99.90
8953;DHT22;4511;50.890;8.054;2023-08-20T12:21:19;30.70;99.90
8953;DHT22;4511;50.890;8.054;2023-08-20T12:23:53;30.70;99.90
8953;DHT22;4511;50.890;8.054;2023-08-20T12:26:25;31.10;99.90
8953;DHT22;4511;50.890;8.054;2023-08-20T12:31:24;30.40;99.90
8953;DHT22;4511;50.890;8.054;2023-08-20T12:33:51;29.90;99.90
8953;DHT22;4511;50.890;8.054;2023-08-20T12:36:19;30.00;99.90
8953;DHT22;4511;50.890;8.054;2023-08-20T12:38:46;30.70;99.90
8953;DHT22;4511;50.890;8.054;2023-08-20T12:41:12;31.40;99.90
8953;DHT22;4511;50.890;8.054;2023-08-20T12:43:40;31.80;99.90
8953;DHT22;4511;50.890;8.054;2023-08-20T12:46:08;31.80;99.90
8953;DHT22;4511;50.890;8.054;2023-08-20T12:48:36;31.20;99.90
8953;DHT22;4511;50.890;8.054;2023-08-20T12:51:02;30.90;99.90
8953;DHT22;4511;50.890;8.054;2023-08-20T12:53:29;31.00;99.90
8953;DHT22;4511;50.890;8.054;2023-08-20T12:55:56;30.90;99.90
8953;DHT22;4511;50.890;8.054;2023-08-20T12:58:24;30.60;99.90
8953;DHT22;4511;50.890;8.054;2023-08-20T13:00:51;30.00;99.90
8953;DHT22;4511;50.890;8.054;2023-08-20T13:03:21;30.10;99.90
8953;DHT22;4511;50.890;8.054;2023-08-20T13:05:52;30.40;99.90
8953;DHT22;4511;50.890;8.054;2023-08-20T13:08:23;30.50;99.90
8953;DHT22;4511;50.890;8.054;2023-08-20T13:10:54;30.30;99.90
8953;DHT22;4511;50.890;8.054;2023-08-20T13:13:22;30.50;99.90
8953;DHT22;4511;50.890;8.054;2023-08-20T13:15:51;30.60;99.90
8953;DHT22;4511;50.890;8.054;2023-08-20T13:18:22;30.70;99.90
8953;DHT22;4511;50.890;8.054;2023-08-20T13:20:53;31.00;99.90
8953;DHT22;4511;50.890;8.054;2023-08-20T13:23:21;31.50;99.90
8953;DHT22;4511;50.890;8.054;2023-08-20T13:25:51;31.90;99.90
8953;DHT22;4511;50.890;8.054;2023-08-20T13:28:20;31.60;99.90
8953;DHT22;4511;50.890;8.054;2023-08-20T13:33:19;32.30;99.90
8953;DHT22;4511;50.890;8.054;2023-08-20T13:35:46;32.00;99.90
8953;DHT22;4511;50.890;8.054;2023-08-20T13:38:14;31.70;99.90
8953;DHT22;4511;50.890;8.054;2023-08-20T13:40:41;31.70;99.90
8953;DHT22;4511;50.890;8.054;2023-08-20T13:43:08;32.00;99.90
8953;DHT22;4511;50.890;8.054;2023-08-20T13:45:36;32.00;99.90
8953;DHT22;4511;50.890;8.054;2023-08-20T13:48:03;32.10;99.90
8953;DHT22;4511;50.890;8.054;2023-08-20T13:50:32;31.60;99.90
8953;DHT22;4511;50.890;8.054;2023-08-20T13:52:59;31.20;99.90
8953;DHT22;4511;50.890;8.054;2023-08-20T13:55:26;31.50;99.90
8953;DHT22;4511;50.890;8.054;2023-08-20T13:57:54;32.00;99.90
8953;DHT22;4511;50.890;8.054;2023-08-20T14:00:22;33.20;99.90
8953;DHT22;4511;50.890;8.054;2023-08-20T14:02:49;33.20;99.90
8953;DHT22;4511;50.890;8.054;2023-08-20T14:05:16;33.80;99.20
8953;DHT22;4511;50.890;8.054;2023-08-20T14:07:46;34.00;99.40
8953;DHT22;4511;50.890;8.054;2023-08-20T14:10:13;34.30;98.30
8953;DHT22;4511;50.890;8.054;2023-08-20T14:12:41;34.50;98.50
8953;DHT22;4511;50.890;8.054;2023-08-20T14:17:39;35.80;99.90
8953;DHT22;4511;50.890;8.054;2023-08-20T14:20:07;35.30;95.30
8953;DHT22;4511;50.890;8.054;2023-08-20T14:22:36;35.40;95.40
8953;DHT22;4511;50.890;8.054;2023-08-20T14:25:05;35.40;94.80
8953;DHT22;4511;50.890;8.054;2023-08-20T14:27:34;34.70;92.20
8953;DHT22;4511;50.890;8.054;2023-08-20T14:30:01;34.70;92.60
8953;DHT22;4511;50.890;8.054;2023-08-20T14:32:28;34.00;93.30
8953;DHT22;4511;50.890;8.054;2023-08-20T14:34:56;33.80;93.60
8953;DHT22;4511;50.890;8.054;2023-08-20T14:37:23;34.80;92.80
8953;DHT22;4511;50.890;8.054;2023-08-20T14:39:50;35.00;92.00
8953;DHT22;4511;50.890;8.054;2023-08-20T14:42:20;34.40;92.40
8953;DHT22;4511;50.890;8.054;2023-08-20T14:44:48;34.40;92.90
8953;DHT22;4511;50.890;8.054;2023-08-20T14:47:15;34.90;92.70
8953;DHT22;4511;50.890;8.054;2023-08-20T14:49:42;35.80;90.90
8953;DHT22;4511;50.890;8.054;2023-08-20T14:52:09;35.60;90.20
8953;DHT22;4511;50.890;8.054;2023-08-20T14:54:36;34.90;91.50
8953;DHT22;4511;50.890;8.054;2023-08-20T14:57:03;34.00;92.10
8953;DHT22;4511;50.890;8.054;2023-08-20T14:59:32;33.10;93.10
8953;DHT22;4511;50.890;8.054;2023-08-20T15:04:29;34.50;92.30
8953;DHT22;4511;50.890;8.054;2023-08-20T15:06:57;33.70;92.90
8953;DHT22;4511;50.890;8.054;2023-08-20T15:09:24;34.00;92.50
8953;DHT22;4511;50.890;8.054;2023-08-20T15:11:52;35.00;92.30
8953;DHT22;4511;50.890;8.054;2023-08-20T15:14:22;36.00;91.00
8953;DHT22;4511;50.890;8.054;2023-08-20T15:16:50;36.10;90.60
8953;DHT22;4511;50.890;8.054;2023-08-20T15:19:18;35.50;90.10
8953;DHT22;4511;50.890;8.054;2023-08-20T15:21:47;35.70;90.10
8953;DHT22;4511;50.890;8.054;2023-08-20T15:24:15;36.10;91.20
8953;DHT22;4511;50.890;8.054;2023-08-20T15:26:42;35.50;90.30
8953;DHT22;4511;50.890;8.054;2023-08-20T15:29:09;35.60;89.80
8953;DHT22;4511;50.890;8.054;2023-08-20T15:31:37;35.80;89.60
8953;DHT22;4511;50.890;8.054;2023-08-20T15:34:06;36.20;89.30
8953;DHT22;4511;50.890;8.054;2023-08-20T15:36:33;36.30;87.50
8953;DHT22;4511;50.890;8.054;2023-08-20T15:39:01;36.10;88.50
8953;DHT22;4511;50.890;8.054;2023-08-20T15:41:29;36.20;88.00
8953;DHT22;4511;50.890;8.054;2023-08-20T15:43:56;36.30;85.90
8953;DHT22;4511;50.890;8.054;2023-08-20T15:46:23;36.40;86.00
8953;DHT22;4511;50.890;8.054;2023-08-20T15:48:50;36.40;85.30
8953;DHT22;4511;50.890;8.054;2023-08-20T15:51:19;36.80;85.80
8953;DHT22;4511;50.890;8.054;2023-08-20T15:53:48;37.20;82.50
8953;DHT22;4511;50.890;8.054;2023-08-20T15:56:15;37.10;83.50
8953;DHT22;4511;50.890;8.054;2023-08-20T15:58:42;37.50;82.10
8953;DHT22;4511;50.890;8.054;2023-08-20T16:01:09;37.20;79.90
8953;DHT22;4511;50.890;8.054;2023-08-20T16:03:37;37.00;79.70
8953;DHT22;4511;50.890;8.054;2023-08-20T16:06:03;37.30;79.30
8953;DHT22;4511;50.890;8.054;2023-08-20T16:08:32;37.80;80.10
8953;DHT22;4511;50.890;8.054;2023-08-20T16:10:58;37.70;78.70
8953;DHT22;4511;50.890;8.054;2023-08-20T16:13:25;37.40;76.70
8953;DHT22;4511;50.890;8.054;2023-08-20T16:15:52;37.40;77.20
8953;DHT22;4511;50.890;8.054;2023-08-20T16:18:19;36.50;74.00
8953;DHT22;4511;50.890;8.054;2023-08-20T16:20:46;36.80;75.40
8953;DHT22;4511;50.890;8.054;2023-08-20T16:23:13;36.60;76.00